الصفحة الرئيسية
METAR-TAF:

METAR-TAF

مطار :

Antigua, أنتيغوا وبربودا

دائرة عرض: 17-07N, خط طول: 061-47W, ارتفاع: 8 متر

مراقبة الطقس الحالي

تاريخ ووقت الإصدار 1ساعة و 12 دقيقة قبل الساعة 06:00UTC
ريح 8 عقدة من الشرق, الاتجاه يتراوح بين الشمال الشرقي و الجنوب الشرقي
درجة الحرارة 28°درجة مئوية
الرطوبة 79%
ضغط 1015 hPa
الرؤية 10 كم أو أكثر
غيوم متفرقة على ارتفاع 2000 قدم
غيوم متفرقة على ارتفاع 3800 قدم

METAR: TAPA 180600Z 09008KT 050V140 9999 SCT020 SCT038 28/24 Q1015 NOSIG

زمن: 03:12 (07:12 UTC)

توقعات

تاريخ ووقت الإصدار 2ساعات و 12 دقيقة قبل الساعة 05:00UTC
التوقعات صالحة من18 الساعة 06 UTC إلى 19 الساعة 06 UTC
ريح 10 عقدة من الشرق
الرؤية 10 كم أو أكثر
غيوم متفرقة على ارتفاع 2000 قدم
نظرية الاحتمالات 30% :
مؤقت
من 18 الساعة 15 UTC إلى 19 الساعة 06 UTC
زخات من المطر,

TAF: TAPA 180500Z 1806/1906 10010KT 9999 SCT020 PROB30 TEMPO 1815/1906 SHRA

أرصاد الطقس والتوقعات من أكثر من 4000 مطار (تقارير الطقس للمطار METAR والتنبؤ بالطقس بالمطارTAF).

المحطات المتاحة هي النقط الصفراء والحمراء على الخريطة.

حرك المؤشر فوق النقطة لمعرفة اسم المحطة.

ثم انقر لمعرفة أرصاد وتوقعات الطقس.

لتغيير الخارطة: اضغط على الأزرار الخضراء مع رمز الصليب الأسود للتكبير. على الزر الأخضر مع شرطة للتصغير، أو على الأسهم الخضراء للخرائط المجاورة.


METAR-TAF: